PEK weather

Beijing Capital International Airport
Beijing, Beijing Municipality, China

Public forecast

Using degrees Celsius for public forecast. Weather courtesy of forecast.io.

METAR (pilot weather report)

Retrieved 2019/03/20 07:00 UTC (2 minutes ago):

ZBAA 200700Z 14004MPS 110V170 6000 FEW040TCU 19/06 Q1001 BECMG AT0810 30005MPS TS

TAF (pilot weather forecast)

Forecast is more than 12 hours old.

Retrieved 2019/03/16 06:25 UTC (4 days ago):

TAF ZBAA 160330Z 1606/1706 33009G16MPS CAVOK TX19/1607Z TN01/1621Z BECMG 1611/1612 35004MPS